Time;durP1;ratioP1;P1;durP2;ratioP2;P2;SDS_P1;SDS_P2;PMS_P1;PMS_P2;Temp;Humidity;BMP_temperature;BMP_pressure;BME280_temperature;BME280_humidity;BME280_pressure;Samples;Min_cycle;Max_cycle;Signal;HPM_P1;HPM_P2
2023/11/16 00:01:06;;;;;;;7.65;3.30;;;19.00;50.10;;;;;;5070351;28;20223;-58
2023/11/16 00:03:33;;;;;;;4.93;2.47;;;19.00;50.10;;;;;;5071749;28;20226;-58
2023/11/16 00:06:01;;;;;;;6.20;3.08;;;19.00;50.10;;;;;;5071439;28;20187;-54
2023/11/16 00:08:29;;;;;;;5.88;2.78;;;18.90;50.00;;;;;;5071470;28;20187;-58
2023/11/16 00:10:58;;;;;;;6.10;2.63;;;19.00;50.10;;;;;;5071241;28;20203;-60
2023/11/16 00:13:25;;;;;;;7.28;2.90;;;18.90;50.00;;;;;;5071730;28;20184;-58
2023/11/16 00:15:53;;;;;;;6.20;2.50;;;18.90;50.00;;;;;;5070184;28;20649;-56
2023/11/16 00:18:20;;;;;;;5.43;2.63;;;18.90;50.00;;;;;;5071279;28;20676;-59
2023/11/16 00:20:47;;;;;;;6.65;2.50;;;18.90;50.00;;;;;;5071566;28;20191;-55
2023/11/16 00:23:14;;;;;;;7.03;2.58;;;19.00;50.10;;;;;;5071235;28;20209;-57
2023/11/16 00:25:42;;;;;;;6.90;2.83;;;18.90;50.00;;;;;;5071678;28;20282;-59
2023/11/16 00:28:09;;;;;;;6.00;2.40;;;18.90;50.00;;;;;;5071493;28;20202;-58
2023/11/16 00:30:36;;;;;;;5.25;2.50;;;18.90;50.00;;;;;;5070528;28;20282;-57
2023/11/16 00:33:04;;;;;;;7.13;2.40;;;18.90;50.10;;;;;;5075326;28;20226;-58
2023/11/16 00:35:31;;;;;;;7.60;2.70;;;18.90;50.00;;;;;;5074969;28;20233;-56
2023/11/16 00:37:59;;;;;;;6.30;2.35;;;18.90;50.00;;;;;;5074506;28;20680;-58
2023/11/16 00:40:32;;;;;;;6.22;2.58;;;18.90;50.10;;;;;;5074659;28;20696;-59
2023/11/16 00:42:59;;;;;;;7.22;2.20;;;18.90;50.00;;;;;;5074977;28;20217;-58
2023/11/16 00:45:27;;;;;;;5.88;2.17;;;18.90;50.00;;;;;;5073720;28;20187;-58
2023/11/16 00:47:54;;;;;;;5.65;2.47;;;18.90;50.00;;;;;;5074775;28;20223;-59
2023/11/16 00:50:22;;;;;;;4.45;2.25;;;18.90;50.00;;;;;;5074724;28;20190;-59
2023/11/16 00:52:49;;;;;;;5.85;2.55;;;18.90;50.00;;;;;;5074277;28;20219;-56
2023/11/16 00:55:17;;;;;;;6.60;2.40;;;18.90;50.00;;;;;;5074609;28;20226;-59
2023/11/16 00:57:47;;;;;;;3.83;1.90;;;18.90;50.00;;;;;;5074352;28;20239;-58
2023/11/16 01:00:16;;;;;;;5.10;2.30;;;18.90;50.00;;;;;;5073090;28;20187;-59
2023/11/16 01:02:43;;;;;;;7.70;2.33;;;18.90;50.00;;;;;;5074638;28;20241;-59
2023/11/16 01:05:11;;;;;;;5.75;2.15;;;18.90;50.00;;;;;;5074520;28;20191;-58
2023/11/16 01:07:39;;;;;;;5.15;2.13;;;18.90;50.10;;;;;;5073563;28;20584;-58
2023/11/16 01:10:10;;;;;;;4.82;2.15;;;18.90;50.00;;;;;;5074427;28;20226;-60
2023/11/16 01:12:38;;;;;;;5.32;2.40;;;18.90;50.00;;;;;;5074302;28;20214;-58
2023/11/16 01:15:10;;;;;;;5.47;2.20;;;18.90;50.00;;;;;;5073173;28;20198;-57
2023/11/16 01:17:39;;;;;;;4.38;1.90;;;18.90;50.00;;;;;;5074018;28;20235;-56
2023/11/16 01:20:18;;;;;;;5.65;2.22;;;18.80;49.90;;;;;;5074108;28;20225;-58
2023/11/16 01:23:00;;;;;;;5.40;2.03;;;18.90;50.60;;;;;;5073356;28;20592;-58
2023/11/16 01:25:27;;;;;;;4.70;1.90;;;18.80;49.90;;;;;;5074157;28;20187;-58
2023/11/16 01:27:57;;;;;;;6.63;1.92;;;18.80;49.90;;;;;;5073972;28;20269;-59
2023/11/16 01:30:24;;;;;;;4.28;2.10;;;18.80;49.90;;;;;;5072868;28;20191;-58
2023/11/16 01:32:52;;;;;;;5.35;2.30;;;18.80;50.00;;;;;;5074212;28;20218;-56
2023/11/16 01:35:21;;;;;;;4.40;2.20;;;18.80;49.90;;;;;;5073889;28;20197;-58
2023/11/16 01:37:51;;;;;;;6.15;2.30;;;18.80;50.00;;;;;;5073538;28;20254;-59
2023/11/16 01:40:18;;;;;;;5.93;2.40;;;18.80;50.00;;;;;;5073764;28;20621;-61
2023/11/16 01:42:45;;;;;;;5.50;2.40;;;18.80;49.90;;;;;;5073800;28;20306;-57
2023/11/16 01:45:29;;;;;;;5.75;2.40;;;18.80;49.90;;;;;;5072672;28;20183;-55
2023/11/16 01:48:00;;;;;;;4.32;2.10;;;18.80;50.00;;;;;;5073592;28;20567;-58
2023/11/16 01:50:29;;;;;;;7.03;2.20;;;18.80;50.00;;;;;;5073256;28;20663;-56
2023/11/16 01:53:04;;;;;;;5.55;2.38;;;18.80;50.00;;;;;;5073349;28;20221;-57
2023/11/16 01:55:34;;;;;;;4.90;2.25;;;18.80;50.10;;;;;;5073392;28;20186;-56
2023/11/16 01:58:04;;;;;;;5.43;2.58;;;18.80;50.10;;;;;;5073332;28;20238;-57
2023/11/16 02:00:33;;;;;;;7.22;2.38;;;18.80;50.20;;;;;;5072478;28;20198;-58
2023/11/16 02:03:03;;;;;;;8.77;2.70;;;18.80;50.20;;;;;;5073496;28;20234;-59
2023/11/16 02:05:32;;;;;;;4.40;2.30;;;18.80;50.30;;;;;;5073282;28;20551;-58
2023/11/16 02:08:01;;;;;;;5.57;2.40;;;18.80;50.30;;;;;;5072806;28;20234;-59
2023/11/16 02:10:30;;;;;;;7.07;2.72;;;18.70;50.20;;;;;;5073216;28;20191;-58
2023/11/16 02:12:59;;;;;;;4.78;2.22;;;18.70;50.20;;;;;;5072808;28;20214;-56
2023/11/16 02:15:30;;;;;;;8.07;2.33;;;18.70;50.20;;;;;;5072748;28;20545;-58
2023/11/16 02:17:57;;;;;;;7.57;2.53;;;18.70;50.20;;;;;;5072826;28;20237;-58
2023/11/16 02:20:25;;;;;;;3.92;2.17;;;18.70;50.20;;;;;;5070292;28;20289;-59
2023/11/16 02:22:55;;;;;;;4.70;2.20;;;18.70;50.20;;;;;;5071766;28;20753;-58
2023/11/16 02:25:26;;;;;;;5.60;2.65;;;18.70;50.20;;;;;;5072622;28;20191;-58
2023/11/16 02:27:54;;;;;;;4.15;2.08;;;18.70;50.30;;;;;;5072207;28;20226;-56
2023/11/16 02:30:22;;;;;;;3.92;2.45;;;18.70;50.30;;;;;;5072282;28;20197;-58
2023/11/16 02:32:50;;;;;;;5.05;2.33;;;18.70;50.30;;;;;;5072829;28;20298;-58
2023/11/16 02:35:17;;;;;;;7.03;2.38;;;18.70;50.30;;;;;;5072087;28;20186;-59
2023/11/16 02:37:44;;;;;;;7.28;2.42;;;18.70;50.30;;;;;;5072215;28;20329;-58
2023/11/16 02:40:11;;;;;;;5.53;2.13;;;18.70;50.40;;;;;;5072661;28;20195;-61
2023/11/16 02:42:40;;;;;;;6.68;2.30;;;18.70;50.40;;;;;;5072024;28;20219;-58
2023/11/16 02:45:08;;;;;;;4.03;2.10;;;18.70;50.40;;;;;;5071882;28;20187;-59
2023/11/16 02:47:36;;;;;;;5.32;2.22;;;18.70;50.40;;;;;;5072655;28;20225;-57
2023/11/16 02:50:04;;;;;;;5.82;2.38;;;18.70;50.40;;;;;;5072112;28;20410;-60
2023/11/16 02:52:31;;;;;;;5.38;2.15;;;18.70;50.40;;;;;;5072629;28;20230;-58
2023/11/16 02:54:58;;;;;;;3.85;2.08;;;18.70;50.50;;;;;;5071934;28;20280;-59
2023/11/16 02:57:25;;;;;;;6.15;2.60;;;18.70;50.50;;;;;;5072066;28;20227;-55
2023/11/16 02:59:53;;;;;;;3.38;1.80;;;18.70;50.50;;;;;;5071415;28;20563;-58
2023/11/16 03:02:19;;;;;;;4.55;1.73;;;18.70;50.50;;;;;;5072125;28;20638;-59
2023/11/16 03:04:46;;;;;;;3.42;2.10;;;18.70;50.60;;;;;;5072174;28;20187;-57
2023/11/16 03:07:13;;;;;;;5.03;2.20;;;18.70;51.20;;;;;;5072106;28;20252;-58
2023/11/16 03:09:40;;;;;;;4.75;2.22;;;18.70;50.60;;;;;;5072472;28;20632;-59
2023/11/16 03:12:08;;;;;;;5.57;2.10;;;18.70;50.60;;;;;;5072167;28;20218;-56
2023/11/16 03:14:36;;;;;;;4.75;2.15;;;18.70;50.60;;;;;;5071004;28;20191;-56
2023/11/16 03:17:06;;;;;;;3.53;2.00;;;18.70;50.60;;;;;;5072165;28;20219;-57
2023/11/16 03:19:34;;;;;;;5.22;2.00;;;18.60;50.60;;;;;;5071212;28;20240;-57
2023/11/16 03:22:03;;;;;;;4.85;1.88;;;18.70;50.70;;;;;;5071180;28;20246;-58
2023/11/16 03:24:30;;;;;;;3.13;2.08;;;18.70;50.70;;;;;;5071432;28;20198;-58
2023/11/16 03:26:57;;;;;;;3.45;1.92;;;18.60;50.60;;;;;;5089861;28;20224;-59
2023/11/16 03:29:25;;;;;;;5.18;2.20;;;18.60;50.60;;;;;;5091128;28;20666;-60
2023/11/16 03:31:52;;;;;;;3.60;1.92;;;18.60;50.60;;;;;;5091928;28;20240;-59
2023/11/16 03:34:21;;;;;;;4.10;2.00;;;18.60;50.60;;;;;;5092096;28;20278;-60
2023/11/16 03:36:48;;;;;;;3.90;1.73;;;18.60;50.60;;;;;;5091868;28;20213;-58
2023/11/16 03:39:17;;;;;;;4.57;2.03;;;18.60;50.70;;;;;;5092121;28;20217;-58
2023/11/16 03:41:44;;;;;;;4.25;2.05;;;18.60;50.70;;;;;;5091967;28;20216;-59
2023/11/16 03:44:10;;;;;;;4.53;2.08;;;18.60;50.70;;;;;;5091016;28;20269;-60
2023/11/16 03:46:38;;;;;;;3.85;1.98;;;18.60;50.70;;;;;;5091633;28;20566;-59
2023/11/16 03:49:05;;;;;;;3.10;1.67;;;18.60;50.70;;;;;;5091774;28;20546;-58
2023/11/16 03:51:33;;;;;;;6.05;2.10;;;18.60;50.70;;;;;;5091728;28;20297;-59
2023/11/16 03:54:00;;;;;;;3.80;1.73;;;18.60;50.70;;;;;;5091745;28;20190;-58
2023/11/16 03:56:27;;;;;;;6.07;1.85;;;18.60;50.80;;;;;;5092003;28;20308;-58
2023/11/16 03:58:54;;;;;;;3.33;1.90;;;18.60;50.80;;;;;;5090850;28;20322;-59
2023/11/16 04:01:21;;;;;;;3.72;1.83;;;18.60;50.80;;;;;;5091688;28;20663;-59
2023/11/16 04:03:48;;;;;;;5.05;1.77;;;18.60;50.80;;;;;;5091983;28;20268;-58
2023/11/16 04:06:22;;;;;;;3.78;1.67;;;18.60;50.90;;;;;;5092593;28;20691;-58
2023/11/16 04:08:51;;;;;;;4.15;2.00;;;18.60;50.90;;;;;;5095852;28;20192;-58
2023/11/16 04:11:19;;;;;;;3.88;1.50;;;18.60;50.90;;;;;;5095567;28;20259;-61
2023/11/16 04:13:46;;;;;;;3.40;1.83;;;18.60;51.60;;;;;;5094553;28;20658;-59
2023/11/16 04:16:20;;;;;;;5.05;1.83;;;18.60;50.90;;;;;;5095541;28;20205;-59
2023/11/16 04:18:49;;;;;;;3.67;1.70;;;18.50;50.80;;;;;;5095392;28;20236;-58
2023/11/16 04:21:18;;;;;;;3.67;1.77;;;18.60;50.90;;;;;;5095366;28;20197;-58
2023/11/16 04:23:50;;;;;;;4.97;2.00;;;18.60;50.90;;;;;;5095496;28;20186;-58
2023/11/16 04:26:20;;;;;;;3.35;1.73;;;18.60;50.90;;;;;;5094636;28;20648;-59
2023/11/16 04:28:48;;;;;;;2.72;1.80;;;18.50;50.90;;;;;;5094956;28;20186;-58
2023/11/16 04:31:15;;;;;;;4.03;1.85;;;18.50;50.90;;;;;;5094975;28;20568;-57
2023/11/16 04:33:42;;;;;;;2.78;1.45;;;18.50;50.90;;;;;;5094947;28;20186;-58
2023/11/16 04:36:10;;;;;;;4.07;1.90;;;18.50;50.90;;;;;;5095310;28;20190;-59
2023/11/16 04:38:37;;;;;;;3.22;1.77;;;18.50;50.90;;;;;;5095115;28;20225;-61
2023/11/16 04:41:09;;;;;;;5.57;1.70;;;18.50;50.90;;;;;;5094767;28;20189;-58
2023/11/16 04:43:38;;;;;;;2.83;1.40;;;18.50;50.90;;;;;;5094561;28;20210;-57
2023/11/16 04:46:06;;;;;;;5.90;1.75;;;18.50;50.90;;;;;;5094787;28;20694;-58
2023/11/16 04:48:33;;;;;;;4.25;1.80;;;18.50;51.00;;;;;;5094928;28;20214;-59
2023/11/16 04:51:01;;;;;;;2.88;1.60;;;18.50;51.00;;;;;;5095050;28;20197;-58
2023/11/16 04:53:29;;;;;;;4.30;1.67;;;18.50;51.00;;;;;;5094845;28;20691;-58
2023/11/16 04:55:57;;;;;;;5.63;1.75;;;18.50;51.00;;;;;;5094468;28;20186;-59
2023/11/16 04:58:24;;;;;;;2.92;1.60;;;18.50;51.00;;;;;;5094074;28;20702;-59
2023/11/16 05:00:52;;;;;;;3.30;1.65;;;18.50;51.00;;;;;;5094816;28;20197;-58
2023/11/16 05:03:21;;;;;;;3.72;1.70;;;18.50;51.10;;;;;;5094269;28;20246;-60
2023/11/16 05:05:48;;;;;;;5.55;1.55;;;18.50;51.70;;;;;;5094723;28;20774;-57
2023/11/16 05:08:15;;;;;;;3.80;1.52;;;18.50;51.20;;;;;;5094821;28;20339;-58
2023/11/16 05:10:43;;;;;;;4.25;1.40;;;18.50;51.10;;;;;;5093993;28;20198;-56
2023/11/16 05:13:09;;;;;;;4.32;1.50;;;18.50;51.20;;;;;;5094027;28;20286;-61
2023/11/16 05:15:36;;;;;;;4.78;1.60;;;18.50;51.20;;;;;;5094282;28;20555;-58
2023/11/16 05:18:05;;;;;;;3.10;1.70;;;18.50;51.20;;;;;;5093775;28;20308;-59
2023/11/16 05:20:32;;;;;;;6.82;1.40;;;18.40;51.10;;;;;;5094158;28;20273;-62
2023/11/16 05:22:59;;;;;;;2.63;1.33;;;18.50;51.20;;;;;;5094012;28;20593;-56
2023/11/16 05:25:25;;;;;;;3.67;1.50;;;18.40;51.20;;;;;;5093610;28;20620;-61
2023/11/16 05:27:52;;;;;;;3.40;1.48;;;18.50;51.20;;;;;;5093664;28;20224;-59
2023/11/16 05:30:19;;;;;;;2.15;1.30;;;18.50;51.20;;;;;;5093979;28;20666;-58
2023/11/16 05:32:46;;;;;;;3.08;1.70;;;18.40;51.10;;;;;;5093822;28;20650;-58
2023/11/16 05:35:14;;;;;;;3.80;1.70;;;18.40;51.20;;;;;;5094183;28;20293;-57
2023/11/16 05:37:41;;;;;;;4.30;1.58;;;18.40;51.10;;;;;;5094175;28;20249;-58
2023/11/16 05:40:09;;;;;;;2.25;1.50;;;18.40;51.20;;;;;;5093921;28;20265;-61
2023/11/16 05:42:36;;;;;;;2.60;1.50;;;18.40;51.20;;;;;;5093210;28;20213;-59
2023/11/16 05:45:03;;;;;;;2.00;1.33;;;18.50;51.20;;;;;;5093981;28;20186;-57
2023/11/16 05:47:31;;;;;;;2.72;1.35;;;18.50;51.20;;;;;;5093940;28;20214;-60
2023/11/16 05:49:58;;;;;;;2.97;1.65;;;18.60;51.30;;;;;;5093622;28;20198;-58
2023/11/16 05:52:26;;;;;;;2.83;1.35;;;18.70;51.20;;;;;;5093866;28;20240;-59
2023/11/16 05:54:53;;;;;;;3.10;1.13;;;18.70;51.10;;;;;;5093573;28;20640;-56
2023/11/16 05:57:20;;;;;;;3.17;1.20;;;18.80;51.10;;;;;;5092694;28;20213;-58
2023/11/16 05:59:47;;;;;;;2.03;1.30;;;18.90;51.70;;;;;;5093647;28;20296;-55
2023/11/16 06:02:15;;;;;;;2.30;1.33;;;19.00;51.00;;;;;;5093627;28;20218;-60
2023/11/16 06:04:43;;;;;;;2.45;1.30;;;19.00;50.80;;;;;;5092974;28;20577;-58
2023/11/16 06:07:10;;;;;;;2.13;1.20;;;19.10;50.70;;;;;;5093120;28;20598;-59
2023/11/16 06:09:39;;;;;;;1.50;1.23;;;19.10;50.60;;;;;;5093324;28;20201;-57
2023/11/16 06:12:07;;;;;;;2.75;1.40;;;19.20;50.60;;;;;;5092350;28;20221;-60
2023/11/16 06:14:34;;;;;;;1.45;0.85;;;19.30;50.40;;;;;;5093336;28;20626;-59
2023/11/16 06:17:01;;;;;;;1.98;1.08;;;19.30;50.40;;;;;;5093320;28;20300;-59
2023/11/16 06:19:29;;;;;;;2.88;0.95;;;19.40;50.40;;;;;;5092834;28;20654;-56
2023/11/16 06:21:56;;;;;;;1.92;1.20;;;19.40;50.40;;;;;;5092860;28;20263;-61
2023/11/16 06:24:23;;;;;;;2.65;1.30;;;19.50;50.50;;;;;;5092820;28;20277;-59
2023/11/16 06:26:51;;;;;;;1.60;1.00;;;19.50;50.30;;;;;;5092056;28;20210;-58
2023/11/16 06:29:18;;;;;;;2.40;0.90;;;19.50;50.20;;;;;;5092347;28;20186;-55
2023/11/16 06:31:45;;;;;;;2.08;1.00;;;19.60;50.20;;;;;;5092955;28;20240;-58
2023/11/16 06:34:13;;;;;;;2.08;1.40;;;19.60;50.10;;;;;;5092382;28;20566;-60
2023/11/16 06:36:41;;;;;;;2.50;0.90;;;19.60;50.10;;;;;;5093005;28;20221;-56
2023/11/16 06:39:08;;;;;;;1.73;1.23;;;19.70;50.10;;;;;;5092993;28;20222;-59
2023/11/16 06:41:35;;;;;;;1.65;0.82;;;19.70;50.00;;;;;;5091819;28;20198;-58
2023/11/16 06:44:05;;;;;;;2.00;0.90;;;19.70;50.00;;;;;;5092688;28;20190;-60
2023/11/16 06:46:34;;;;;;;2.30;1.13;;;19.80;50.00;;;;;;5092791;28;20189;-59
2023/11/16 06:49:02;;;;;;;2.55;0.90;;;19.80;49.80;;;;;;5092505;28;20569;-59
2023/11/16 06:51:29;;;;;;;1.33;0.90;;;19.80;49.80;;;;;;5092625;28;20186;-59
2023/11/16 06:53:56;;;;;;;1.77;1.10;;;19.80;49.70;;;;;;5092466;28;20194;-59
2023/11/16 06:56:27;;;;;;;1.60;0.95;;;19.90;49.80;;;;;;5091354;28;20190;-59
2023/11/16 06:58:54;;;;;;;1.35;0.90;;;19.90;49.70;;;;;;5092237;28;20305;-58
2023/11/16 07:01:22;;;;;;;2.45;1.30;;;19.90;49.60;;;;;;5092221;28;20627;-59
2023/11/16 07:03:49;;;;;;;1.55;0.90;;;19.90;49.60;;;;;;5092473;28;20225;-58
2023/11/16 07:06:18;;;;;;;1.10;0.82;;;19.90;49.50;;;;;;5092311;28;20242;-58
2023/11/16 07:08:46;;;;;;;3.05;1.10;;;19.90;49.60;;;;;;5092740;28;20218;-59
2023/11/16 07:11:15;;;;;;;1.83;1.10;;;20.00;49.50;;;;;;5091308;28;20194;-51
2023/11/16 07:13:42;;;;;;;1.75;0.90;;;20.00;50.10;;;;;;5092662;28;20632;-57
2023/11/16 07:16:09;;;;;;;2.45;1.10;;;20.00;49.40;;;;;;5092396;28;20214;-54
2023/11/16 07:18:39;;;;;;;0.93;0.70;;;20.00;49.40;;;;;;5091786;28;20268;-55
2023/11/16 07:21:06;;;;;;;1.17;0.77;;;20.00;49.40;;;;;;5091971;28;20684;-56
2023/11/16 07:23:36;;;;;;;1.77;0.60;;;20.10;49.40;;;;;;5092025;28;20767;-60
2023/11/16 07:26:08;;;;;;;2.28;0.88;;;20.10;49.40;;;;;;5090969;28;20562;-58
2023/11/16 07:28:36;;;;;;;2.40;1.00;;;20.10;49.40;;;;;;5092450;28;20563;-54
2023/11/16 07:31:04;;;;;;;2.47;1.27;;;20.10;49.40;;;;;;5092270;28;20189;-58
2023/11/16 07:33:34;;;;;;;2.25;0.98;;;20.10;49.40;;;;;;5092338;28;20296;-59
2023/11/16 07:36:02;;;;;;;2.55;0.90;;;20.10;49.30;;;;;;5092208;28;20270;-56
2023/11/16 07:38:31;;;;;;;1.55;0.90;;;20.10;49.30;;;;;;5092342;28;20217;-59
2023/11/16 07:40:58;;;;;;;1.77;0.85;;;20.20;49.40;;;;;;5092606;28;20194;-58
2023/11/16 07:43:26;;;;;;;1.90;1.00;;;20.20;49.30;;;;;;5096446;28;20304;-58
2023/11/16 07:45:53;;;;;;;1.45;0.73;;;20.20;49.30;;;;;;5095871;28;20186;-57
2023/11/16 07:48:20;;;;;;;1.70;0.93;;;20.20;49.30;;;;;;5095756;28;20225;-62
2023/11/16 07:50:47;;;;;;;1.67;0.90;;;20.20;49.30;;;;;;5084614;28;20207;-60
2023/11/16 07:53:16;;;;;;;1.10;0.90;;;20.20;49.20;;;;;;5054231;28;20321;-56
2023/11/16 07:55:48;;;;;;;1.70;1.00;;;20.20;49.20;;;;;;5059184;28;20312;-56
2023/11/16 07:58:17;;;;;;;1.30;0.88;;;20.20;49.20;;;;;;5064368;28;20220;-59
2023/11/16 08:00:55;;;;;;;3.28;0.73;;;20.20;49.40;;;;;;5059324;28;20673;-55
2023/11/16 08:06:12;;;;;;;0.80;0.80;;;20.20;49.40;;;;;;5059224;28;20210;-56
2023/11/16 08:08:42;;;;;;;2.63;1.00;;;20.20;49.40;;;;;;5053503;28;20222;-59
2023/11/16 08:11:11;;;;;;;0.98;0.82;;;20.20;49.50;;;;;;5056113;28;20229;-59
2023/11/16 08:13:41;;;;;;;1.88;1.10;;;20.20;49.50;;;;;;5066768;28;20218;-58
2023/11/16 08:16:09;;;;;;;2.85;1.10;;;20.20;49.80;;;;;;5072543;28;20194;-59
2023/11/16 08:18:38;;;;;;;4.80;1.13;;;20.30;50.10;;;;;;5076451;28;20219;-58
2023/11/16 08:21:07;;;;;;;1.77;1.02;;;20.30;50.20;;;;;;5067427;28;20202;-60
2023/11/16 08:23:38;;;;;;;5.00;1.33;;;20.40;50.30;;;;;;5069246;28;20298;-59
2023/11/16 08:26:07;;;;;;;3.58;1.00;;;20.40;50.30;;;;;;5053641;28;20190;-59
2023/11/16 08:28:35;;;;;;;4.18;0.90;;;20.50;50.40;;;;;;5054837;28;21533;-60
2023/11/16 08:31:02;;;;;;;2.95;1.05;;;20.50;50.30;;;;;;5055655;28;20197;-57
2023/11/16 08:33:31;;;;;;;4.10;1.00;;;20.60;50.60;;;;;;5080694;28;20366;-60
2023/11/16 08:36:00;;;;;;;3.88;0.90;;;20.60;50.40;;;;;;5073816;28;20187;-60
2023/11/16 08:38:28;;;;;;;1.85;0.90;;;20.70;50.40;;;;;;5073135;28;20690;-58
2023/11/16 08:40:58;;;;;;;1.15;0.70;;;20.70;50.40;;;;;;5073515;28;20302;-57
2023/11/16 08:43:27;;;;;;;3.55;0.80;;;20.70;50.30;;;;;;5066043;28;20246;-59
2023/11/16 08:45:55;;;;;;;2.33;0.90;;;20.80;50.40;;;;;;5063922;28;20210;-55
2023/11/16 08:48:32;;;;;;;3.33;1.00;;;20.80;50.40;;;;;;5076303;28;20451;-55
2023/11/16 08:51:00;;;;;;;2.28;0.95;;;20.90;50.70;;;;;;5065572;28;20196;-51
2023/11/16 08:53:30;;;;;;;3.00;0.80;;;20.90;50.40;;;;;;5076134;28;20263;-58
2023/11/16 08:55:58;;;;;;;4.95;0.98;;;20.90;50.40;;;;;;5070294;28;20209;-59
2023/11/16 08:58:29;;;;;;;1.73;0.90;;;21.00;50.50;;;;;;5056402;28;20805;-59
2023/11/16 09:00:56;;;;;;;4.72;0.95;;;21.00;50.50;;;;;;5049867;28;20696;-53
2023/11/16 09:03:37;;;;;;;3.33;0.73;;;21.00;50.40;;;;;;5058670;28;21031;-54
2023/11/16 09:06:06;;;;;;;2.30;0.70;;;21.00;50.50;;;;;;5067179;28;20190;-55
2023/11/16 09:08:36;;;;;;;1.20;0.80;;;21.00;50.50;;;;;;5064709;28;20225;-55
2023/11/16 09:11:05;;;;;;;2.60;0.60;;;21.00;50.50;;;;;;5062401;28;20205;-54
2023/11/16 09:13:50;;;;;;;6.63;1.13;;;21.00;50.50;;;;;;5071900;28;20728;-56
2023/11/16 09:16:17;;;;;;;2.67;0.88;;;21.00;50.60;;;;;;5064069;28;20439;-57
2023/11/16 09:18:45;;;;;;;2.72;0.90;;;21.00;50.60;;;;;;5070724;28;20230;-55
2023/11/16 09:21:14;;;;;;;1.10;0.77;;;21.10;51.40;;;;;;5059133;28;20195;-50
2023/11/16 09:23:41;;;;;;;0.93;0.70;;;21.10;50.70;;;;;;5057586;28;20299;-61
2023/11/16 09:26:09;;;;;;;6.82;1.05;;;21.10;50.70;;;;;;5071326;28;20191;-59
2023/11/16 09:28:38;;;;;;;4.88;0.75;;;21.10;50.80;;;;;;5087740;28;20214;-59
2023/11/16 09:31:10;;;;;;;3.17;0.80;;;21.10;50.90;;;;;;5073842;28;20187;-58
2023/11/16 09:33:39;;;;;;;1.45;0.82;;;21.10;50.90;;;;;;5070756;28;20259;-62
2023/11/16 09:36:07;;;;;;;2.20;0.70;;;21.10;50.90;;;;;;5066817;28;20178;-61
2023/11/16 09:38:34;;;;;;;1.10;0.80;;;21.10;50.90;;;;;;5073584;28;20301;-60
2023/11/16 09:41:15;;;;;;;2.38;0.90;;;21.10;50.90;;;;;;5071233;28;20220;-56
2023/11/16 09:43:50;;;;;;;1.23;0.70;;;21.10;50.90;;;;;;5072738;28;20258;-49
2023/11/16 09:46:22;;;;;;;1.20;0.70;;;21.10;51.00;;;;;;5075020;28;20205;-57
2023/11/16 09:48:53;;;;;;;2.67;0.68;;;21.20;51.10;;;;;;5065012;28;20284;-54
2023/11/16 09:51:23;;;;;;;4.40;0.85;;;21.10;51.10;;;;;;5063831;28;20277;-58
2023/11/16 09:53:51;;;;;;;1.42;0.60;;;21.20;51.80;;;;;;5066050;28;20224;-57
2023/11/16 09:56:27;;;;;;;1.42;1.10;;;21.20;51.30;;;;;;5072536;28;20227;-59
2023/11/16 09:59:06;;;;;;;4.40;1.05;;;21.20;51.30;;;;;;5056834;28;20227;-61
2023/11/16 10:01:37;;;;;;;1.77;0.70;;;21.20;51.30;;;;;;5069333;28;20202;-60
2023/11/16 10:04:07;;;;;;;4.70;1.10;;;21.20;51.30;;;;;;5062996;28;20218;-54
2023/11/16 10:06:34;;;;;;;1.33;0.75;;;21.10;52.00;;;;;;5073381;28;20224;-57
2023/11/16 10:09:14;;;;;;;3.42;0.90;;;21.20;51.50;;;;;;5077063;28;20291;-59
2023/11/16 10:11:41;;;;;;;1.20;0.75;;;21.10;51.40;;;;;;5056427;28;20192;-58
2023/11/16 10:14:08;;;;;;;2.72;0.93;;;21.10;51.50;;;;;;5061523;28;20710;-58
2023/11/16 10:16:37;;;;;;;3.05;1.10;;;21.10;51.60;;;;;;5062446;28;20292;-62
2023/11/16 10:19:06;;;;;;;3.78;0.73;;;21.10;51.60;;;;;;5057622;28;20301;-57
2023/11/16 10:21:34;;;;;;;2.38;0.70;;;21.10;51.50;;;;;;5065989;28;20198;-56
2023/11/16 10:24:10;;;;;;;5.13;0.68;;;21.10;51.50;;;;;;5062699;28;20230;-63
2023/11/16 10:26:38;;;;;;;5.07;1.10;;;21.10;51.50;;;;;;5061530;28;20686;-57
2023/11/16 10:29:06;;;;;;;2.33;0.77;;;21.10;51.40;;;;;;5059671;28;20222;-55
2023/11/16 10:31:34;;;;;;;4.13;0.70;;;21.10;51.40;;;;;;5062784;28;20669;-54
2023/11/16 10:34:04;;;;;;;2.33;0.90;;;21.10;51.50;;;;;;5056824;28;20774;-57
2023/11/16 10:36:37;;;;;;;3.20;0.65;;;21.10;51.40;;;;;;5058399;28;20203;-58
2023/11/16 10:39:11;;;;;;;1.90;0.70;;;21.10;51.40;;;;;;5066540;28;20688;-57
2023/11/16 10:41:40;;;;;;;3.38;0.80;;;21.10;51.30;;;;;;5066637;28;20602;-57
2023/11/16 10:44:09;;;;;;;3.28;1.00;;;21.10;51.20;;;;;;5068581;28;20305;-58
2023/11/16 10:46:37;;;;;;;2.60;0.90;;;21.10;51.10;;;;;;5068710;28;20187;-56
2023/11/16 10:49:06;;;;;;;3.10;0.90;;;21.10;51.10;;;;;;5068005;28;20663;-57
2023/11/16 10:51:38;;;;;;;5.97;1.15;;;21.10;51.10;;;;;;5067753;28;20195;-58
2023/11/16 10:54:06;;;;;;;3.35;0.95;;;21.00;51.00;;;;;;5066450;28;20582;-58
2023/11/16 10:56:41;;;;;;;4.07;1.15;;;21.00;51.00;;;;;;5058661;28;20295;-56
2023/11/16 10:59:13;;;;;;;4.00;1.00;;;21.00;51.00;;;;;;5064344;28;20222;-57
2023/11/16 11:01:42;;;;;;;4.53;1.60;;;21.00;51.00;;;;;;5068253;28;20210;-56
2023/11/16 11:04:11;;;;;;;4.22;1.10;;;21.00;51.00;;;;;;5069608;28;20225;-57
2023/11/16 11:06:42;;;;;;;3.35;1.10;;;21.00;51.00;;;;;;5069940;28;20238;-55
2023/11/16 11:09:15;;;;;;;5.85;1.30;;;21.00;51.00;;;;;;5068798;28;20321;-56
2023/11/16 11:11:45;;;;;;;3.80;1.27;;;21.00;51.00;;;;;;5054400;28;20257;-55
2023/11/16 11:14:13;;;;;;;4.75;0.98;;;21.00;51.00;;;;;;5059338;28;20302;-54
2023/11/16 11:16:40;;;;;;;3.03;1.00;;;21.00;51.00;;;;;;5058505;28;20195;-57
2023/11/16 11:19:09;;;;;;;3.08;1.05;;;21.00;51.00;;;;;;5057598;28;20209;-54
2023/11/16 11:21:49;;;;;;;5.10;1.10;;;20.90;50.90;;;;;;5053941;28;20302;-55
2023/11/16 11:24:19;;;;;;;6.63;1.35;;;21.00;50.90;;;;;;5055002;28;20704;-54
2023/11/16 11:26:48;;;;;;;4.25;1.20;;;20.90;50.90;;;;;;5057667;28;20202;-56
2023/11/16 11:29:17;;;;;;;3.55;1.15;;;20.90;50.90;;;;;;5056140;28;20196;-54
2023/11/16 11:31:59;;;;;;;2.08;0.90;;;20.90;50.90;;;;;;5065025;28;20288;-54
2023/11/16 11:34:31;;;;;;;6.78;1.33;;;20.90;51.00;;;;;;5062574;28;20219;-55
2023/11/16 11:37:01;;;;;;;6.43;1.15;;;20.90;51.00;;;;;;5049865;28;20211;-54
2023/11/16 11:39:38;;;;;;;4.10;1.10;;;20.80;50.80;;;;;;5049796;28;20971;-52
2023/11/16 11:42:05;;;;;;;3.72;1.33;;;20.80;50.80;;;;;;5052036;28;20195;-53
2023/11/16 11:44:32;;;;;;;5.68;1.23;;;20.80;50.80;;;;;;5069661;28;20222;-57
2023/11/16 11:47:01;;;;;;;4.60;1.30;;;20.80;50.80;;;;;;5070031;28;20187;-56
2023/11/16 11:49:27;;;;;;;3.15;1.15;;;20.80;50.80;;;;;;5070640;28;20403;-50
2023/11/16 11:52:00;;;;;;;2.38;1.02;;;20.80;50.80;;;;;;5063907;28;20200;-56
2023/11/16 11:54:35;;;;;;;3.65;1.27;;;20.80;50.80;;;;;;5056860;28;20738;-52
2023/11/16 11:57:04;;;;;;;3.15;1.17;;;20.80;50.80;;;;;;5070268;28;20224;-56
2023/11/16 11:59:31;;;;;;;4.70;1.30;;;20.80;50.80;;;;;;5070289;28;20191;-56
2023/11/16 12:02:07;;;;;;;4.28;1.10;;;20.80;50.80;;;;;;5070286;28;20229;-59
2023/11/16 12:04:34;;;;;;;2.53;1.25;;;20.70;50.70;;;;;;5063870;28;20183;-58
2023/11/16 12:07:07;;;;;;;5.43;1.30;;;20.70;50.60;;;;;;5060667;28;20222;-58
2023/11/16 12:09:35;;;;;;;5.03;1.48;;;20.70;50.70;;;;;;5069884;28;20543;-58
2023/11/16 12:12:03;;;;;;;7.53;1.30;;;20.70;50.60;;;;;;5061784;28;20569;-58
2023/11/16 12:14:36;;;;;;;5.00;1.30;;;20.80;50.60;;;;;;5053270;28;20204;-56
2023/11/16 12:17:04;;;;;;;3.03;1.10;;;20.80;50.70;;;;;;5050197;28;20265;-57
2023/11/16 12:19:32;;;;;;;4.90;1.33;;;20.70;50.50;;;;;;5064385;28;20672;-58
2023/11/16 12:21:59;;;;;;;5.30;1.48;;;20.80;50.50;;;;;;5069770;28;20234;-56
2023/11/16 12:24:30;;;;;;;2.78;1.23;;;20.70;50.40;;;;;;5070013;28;20198;-56
2023/11/16 12:26:59;;;;;;;3.33;1.00;;;20.70;51.00;;;;;;5071051;28;20253;-57
2023/11/16 12:29:26;;;;;;;3.63;1.20;;;20.70;50.40;;;;;;5073763;28;20187;-58
2023/11/16 12:31:54;;;;;;;4.38;1.33;;;20.70;50.40;;;;;;5073828;28;20229;-57
2023/11/16 12:34:22;;;;;;;4.35;0.98;;;20.70;50.30;;;;;;5058711;28;20696;-57
2023/11/16 12:36:49;;;;;;;4.88;1.00;;;20.70;50.30;;;;;;5061088;28;20265;-59
2023/11/16 12:39:16;;;;;;;4.18;1.00;;;20.70;50.50;;;;;;5073184;28;20190;-57
2023/11/16 12:41:45;;;;;;;4.13;1.27;;;20.70;50.20;;;;;;5056698;28;20723;-55
2023/11/16 12:44:12;;;;;;;3.35;1.08;;;20.70;50.20;;;;;;5053240;28;20282;-58
2023/11/16 12:46:39;;;;;;;3.45;0.95;;;20.70;50.20;;;;;;5053192;28;20227;-59
2023/11/16 12:49:06;;;;;;;6.22;1.50;;;20.70;50.20;;;;;;5070465;28;20198;-59
2023/11/16 12:51:34;;;;;;;3.00;1.05;;;20.70;50.20;;;;;;5073543;28;20221;-59
2023/11/16 12:54:01;;;;;;;3.00;1.15;;;20.70;50.10;;;;;;5070651;28;20198;-60
2023/11/16 12:56:28;;;;;;;9.20;1.30;;;20.80;50.10;;;;;;5066300;28;20758;-57
2023/11/16 12:58:57;;;;;;;3.05;1.05;;;20.70;50.20;;;;;;5072612;28;20218;-59